sensor_id;sensor_type;location;lat;lon;timestamp;P1;durP1;ratioP1;P2;durP2;ratioP2
47289;SDS011;33197;52.524;13.444;2023-05-10T00:00:41;10.35;;;5.15;;
47289;SDS011;33197;52.524;13.444;2023-05-10T00:03:09;7.95;;;5.40;;
47289;SDS011;33197;52.524;13.444;2023-05-10T00:05:36;8.10;;;5.38;;
47289;SDS011;33197;52.524;13.444;2023-05-10T00:08:03;7.45;;;5.05;;
47289;SDS011;33197;52.524;13.444;2023-05-10T00:10:30;7.93;;;4.72;;
47289;SDS011;33197;52.524;13.444;2023-05-10T00:12:57;15.00;;;5.72;;
47289;SDS011;33197;52.524;13.444;2023-05-10T00:15:25;10.07;;;5.93;;
47289;SDS011;33197;52.524;13.444;2023-05-10T00:17:52;8.43;;;5.30;;
47289;SDS011;33197;52.524;13.444;2023-05-10T00:20:19;6.75;;;5.45;;
47289;SDS011;33197;52.524;13.444;2023-05-10T00:22:47;8.25;;;5.18;;
47289;SDS011;33197;52.524;13.444;2023-05-10T00:25:14;6.30;;;5.10;;
47289;SDS011;33197;52.524;13.444;2023-05-10T00:27:41;8.77;;;5.53;;
47289;SDS011;33197;52.524;13.444;2023-05-10T00:30:08;7.88;;;5.38;;
47289;SDS011;33197;52.524;13.444;2023-05-10T00:32:36;12.63;;;5.47;;
47289;SDS011;33197;52.524;13.444;2023-05-10T00:35:03;11.02;;;5.47;;
47289;SDS011;33197;52.524;13.444;2023-05-10T00:37:30;11.68;;;5.60;;
47289;SDS011;33197;52.524;13.444;2023-05-10T00:39:57;9.43;;;5.15;;
47289;SDS011;33197;52.524;13.444;2023-05-10T00:42:25;5.95;;;4.63;;
47289;SDS011;33197;52.524;13.444;2023-05-10T00:44:52;10.23;;;5.53;;
47289;SDS011;33197;52.524;13.444;2023-05-10T00:47:19;9.77;;;5.00;;
47289;SDS011;33197;52.524;13.444;2023-05-10T00:49:46;7.38;;;5.45;;
47289;SDS011;33197;52.524;13.444;2023-05-10T00:52:13;7.35;;;5.50;;
47289;SDS011;33197;52.524;13.444;2023-05-10T00:54:41;7.63;;;5.30;;
47289;SDS011;33197;52.524;13.444;2023-05-10T00:57:08;9.45;;;5.68;;
47289;SDS011;33197;52.524;13.444;2023-05-10T00:59:36;7.05;;;5.35;;
47289;SDS011;33197;52.524;13.444;2023-05-10T01:02:03;10.52;;;4.93;;
47289;SDS011;33197;52.524;13.444;2023-05-10T01:04:30;7.55;;;5.60;;
47289;SDS011;33197;52.524;13.444;2023-05-10T01:06:58;7.07;;;4.93;;
47289;SDS011;33197;52.524;13.444;2023-05-10T01:09:26;8.90;;;5.72;;
47289;SDS011;33197;52.524;13.444;2023-05-10T01:11:53;10.02;;;5.55;;
47289;SDS011;33197;52.524;13.444;2023-05-10T01:14:21;10.20;;;5.22;;
47289;SDS011;33197;52.524;13.444;2023-05-10T01:16:48;8.38;;;5.47;;
47289;SDS011;33197;52.524;13.444;2023-05-10T01:19:19;11.10;;;5.57;;
47289;SDS011;33197;52.524;13.444;2023-05-10T01:21:53;7.10;;;5.22;;
47289;SDS011;33197;52.524;13.444;2023-05-10T01:24:59;12.55;;;5.47;;
47289;SDS011;33197;52.524;13.444;2023-05-10T01:27:45;7.60;;;5.05;;
47289;SDS011;33197;52.524;13.444;2023-05-10T01:33:35;12.88;;;5.78;;
47289;SDS011;33197;52.524;13.444;2023-05-10T01:36:19;7.68;;;4.70;;
47289;SDS011;33197;52.524;13.444;2023-05-10T01:44:42;7.55;;;4.80;;
47289;SDS011;33197;52.524;13.444;2023-05-10T01:50:15;7.10;;;5.45;;
47289;SDS011;33197;52.524;13.444;2023-05-10T01:52:47;6.60;;;4.65;;
47289;SDS011;33197;52.524;13.444;2023-05-10T01:55:22;10.93;;;5.13;;
47289;SDS011;33197;52.524;13.444;2023-05-10T01:57:52;10.80;;;5.22;;
47289;SDS011;33197;52.524;13.444;2023-05-10T02:00:25;6.75;;;5.10;;
47289;SDS011;33197;52.524;13.444;2023-05-10T02:02:53;7.25;;;5.07;;
47289;SDS011;33197;52.524;13.444;2023-05-10T02:05:21;7.78;;;5.38;;
47289;SDS011;33197;52.524;13.444;2023-05-10T02:07:49;10.52;;;5.13;;
47289;SDS011;33197;52.524;13.444;2023-05-10T02:10:17;11.32;;;5.70;;
47289;SDS011;33197;52.524;13.444;2023-05-10T02:12:46;6.72;;;5.47;;
47289;SDS011;33197;52.524;13.444;2023-05-10T02:16:03;12.02;;;5.32;;
47289;SDS011;33197;52.524;13.444;2023-05-10T02:18:33;8.55;;;6.18;;
47289;SDS011;33197;52.524;13.444;2023-05-10T02:21:01;9.60;;;5.80;;
47289;SDS011;33197;52.524;13.444;2023-05-10T02:23:29;8.95;;;5.15;;
47289;SDS011;33197;52.524;13.444;2023-05-10T02:25:57;7.65;;;5.20;;
47289;SDS011;33197;52.524;13.444;2023-05-10T02:28:24;7.70;;;5.53;;
47289;SDS011;33197;52.524;13.444;2023-05-10T02:30:52;6.93;;;4.75;;
47289;SDS011;33197;52.524;13.444;2023-05-10T02:33:20;8.57;;;5.10;;
47289;SDS011;33197;52.524;13.444;2023-05-10T02:35:48;10.07;;;5.97;;
47289;SDS011;33197;52.524;13.444;2023-05-10T02:38:17;10.85;;;5.53;;
47289;SDS011;33197;52.524;13.444;2023-05-10T02:40:46;7.22;;;5.05;;
47289;SDS011;33197;52.524;13.444;2023-05-10T02:43:14;9.52;;;5.97;;
47289;SDS011;33197;52.524;13.444;2023-05-10T02:45:43;9.70;;;5.03;;
47289;SDS011;33197;52.524;13.444;2023-05-10T02:48:10;8.85;;;5.10;;
47289;SDS011;33197;52.524;13.444;2023-05-10T02:50:37;7.75;;;4.82;;
47289;SDS011;33197;52.524;13.444;2023-05-10T02:53:09;9.38;;;5.18;;
47289;SDS011;33197;52.524;13.444;2023-05-10T02:55:38;6.13;;;4.20;;
47289;SDS011;33197;52.524;13.444;2023-05-10T02:58:08;8.40;;;5.07;;
47289;SDS011;33197;52.524;13.444;2023-05-10T03:00:35;8.07;;;4.60;;
47289;SDS011;33197;52.524;13.444;2023-05-10T03:03:03;6.50;;;4.55;;
47289;SDS011;33197;52.524;13.444;2023-05-10T03:05:30;9.30;;;4.85;;
47289;SDS011;33197;52.524;13.444;2023-05-10T03:07:57;8.93;;;5.38;;
47289;SDS011;33197;52.524;13.444;2023-05-10T03:10:26;11.02;;;4.70;;
47289;SDS011;33197;52.524;13.444;2023-05-10T03:13:16;8.55;;;5.30;;
47289;SDS011;33197;52.524;13.444;2023-05-10T03:16:03;11.02;;;5.68;;
47289;SDS011;33197;52.524;13.444;2023-05-10T03:18:47;6.93;;;4.80;;
47289;SDS011;33197;52.524;13.444;2023-05-10T03:21:17;9.98;;;5.32;;
47289;SDS011;33197;52.524;13.444;2023-05-10T03:23:55;9.40;;;5.03;;
47289;SDS011;33197;52.524;13.444;2023-05-10T03:26:27;6.05;;;4.30;;
47289;SDS011;33197;52.524;13.444;2023-05-10T03:28:55;5.93;;;4.82;;
47289;SDS011;33197;52.524;13.444;2023-05-10T03:31:22;7.88;;;4.88;;
47289;SDS011;33197;52.524;13.444;2023-05-10T03:33:50;8.98;;;4.85;;
47289;SDS011;33197;52.524;13.444;2023-05-10T03:36:18;10.57;;;5.00;;
47289;SDS011;33197;52.524;13.444;2023-05-10T03:38:46;8.85;;;5.80;;
47289;SDS011;33197;52.524;13.444;2023-05-10T03:41:13;10.10;;;5.20;;
47289;SDS011;33197;52.524;13.444;2023-05-10T03:43:40;8.57;;;5.07;;
47289;SDS011;33197;52.524;13.444;2023-05-10T03:46:08;13.38;;;5.38;;
47289;SDS011;33197;52.524;13.444;2023-05-10T03:48:35;9.65;;;5.40;;
47289;SDS011;33197;52.524;13.444;2023-05-10T03:51:02;10.32;;;5.38;;
47289;SDS011;33197;52.524;13.444;2023-05-10T03:53:29;7.05;;;5.40;;
47289;SDS011;33197;52.524;13.444;2023-05-10T03:55:57;8.57;;;4.70;;
47289;SDS011;33197;52.524;13.444;2023-05-10T03:58:24;12.48;;;5.50;;
47289;SDS011;33197;52.524;13.444;2023-05-10T04:00:51;10.85;;;5.22;;
47289;SDS011;33197;52.524;13.444;2023-05-10T04:03:19;9.27;;;4.63;;
47289;SDS011;33197;52.524;13.444;2023-05-10T04:05:47;8.80;;;4.60;;
47289;SDS011;33197;52.524;13.444;2023-05-10T04:08:14;10.00;;;5.07;;
47289;SDS011;33197;52.524;13.444;2023-05-10T04:10:43;10.90;;;5.10;;
47289;SDS011;33197;52.524;13.444;2023-05-10T04:13:10;11.20;;;5.18;;
47289;SDS011;33197;52.524;13.444;2023-05-10T04:15:37;7.18;;;4.60;;
47289;SDS011;33197;52.524;13.444;2023-05-10T04:18:05;12.25;;;5.35;;
47289;SDS011;33197;52.524;13.444;2023-05-10T04:20:34;7.68;;;4.95;;
47289;SDS011;33197;52.524;13.444;2023-05-10T04:23:01;5.95;;;4.22;;
47289;SDS011;33197;52.524;13.444;2023-05-10T04:25:29;9.23;;;4.53;;
47289;SDS011;33197;52.524;13.444;2023-05-10T04:27:56;13.65;;;5.13;;
47289;SDS011;33197;52.524;13.444;2023-05-10T04:30:23;15.32;;;4.90;;
47289;SDS011;33197;52.524;13.444;2023-05-10T04:32:50;6.25;;;4.35;;
47289;SDS011;33197;52.524;13.444;2023-05-10T04:35:17;11.18;;;4.80;;
47289;SDS011;33197;52.524;13.444;2023-05-10T04:37:45;8.50;;;4.72;;
47289;SDS011;33197;52.524;13.444;2023-05-10T04:40:12;11.60;;;5.03;;
47289;SDS011;33197;52.524;13.444;2023-05-10T04:42:39;10.85;;;4.75;;
47289;SDS011;33197;52.524;13.444;2023-05-10T04:45:08;8.60;;;4.57;;
47289;SDS011;33197;52.524;13.444;2023-05-10T04:47:36;8.07;;;4.72;;
47289;SDS011;33197;52.524;13.444;2023-05-10T04:50:04;13.02;;;4.75;;
47289;SDS011;33197;52.524;13.444;2023-05-10T04:52:31;11.63;;;4.50;;
47289;SDS011;33197;52.524;13.444;2023-05-10T04:54:58;7.55;;;4.35;;
47289;SDS011;33197;52.524;13.444;2023-05-10T04:57:25;5.43;;;3.88;;
47289;SDS011;33197;52.524;13.444;2023-05-10T04:59:53;6.85;;;4.55;;
47289;SDS011;33197;52.524;13.444;2023-05-10T05:02:20;7.32;;;4.25;;
47289;SDS011;33197;52.524;13.444;2023-05-10T05:04:47;6.20;;;3.90;;
47289;SDS011;33197;52.524;13.444;2023-05-10T05:07:14;11.20;;;4.47;;
47289;SDS011;33197;52.524;13.444;2023-05-10T05:09:41;8.77;;;4.55;;
47289;SDS011;33197;52.524;13.444;2023-05-10T05:12:09;11.57;;;4.53;;
47289;SDS011;33197;52.524;13.444;2023-05-10T05:14:40;9.20;;;4.93;;
47289;SDS011;33197;52.524;13.444;2023-05-10T05:17:07;6.05;;;3.72;;
47289;SDS011;33197;52.524;13.444;2023-05-10T05:19:35;7.90;;;4.28;;
47289;SDS011;33197;52.524;13.444;2023-05-10T05:22:02;8.90;;;4.32;;
47289;SDS011;33197;52.524;13.444;2023-05-10T05:24:34;9.00;;;3.78;;
47289;SDS011;33197;52.524;13.444;2023-05-10T05:27:02;6.18;;;4.20;;
47289;SDS011;33197;52.524;13.444;2023-05-10T05:29:29;9.02;;;3.95;;
47289;SDS011;33197;52.524;13.444;2023-05-10T05:31:56;7.85;;;3.95;;
47289;SDS011;33197;52.524;13.444;2023-05-10T05:34:23;8.93;;;4.63;;
47289;SDS011;33197;52.524;13.444;2023-05-10T05:36:50;7.45;;;4.38;;
47289;SDS011;33197;52.524;13.444;2023-05-10T05:39:18;5.40;;;3.50;;
47289;SDS011;33197;52.524;13.444;2023-05-10T05:41:45;7.38;;;3.50;;
47289;SDS011;33197;52.524;13.444;2023-05-10T05:44:13;7.43;;;3.38;;
47289;SDS011;33197;52.524;13.444;2023-05-10T05:46:40;5.43;;;3.67;;
47289;SDS011;33197;52.524;13.444;2023-05-10T05:49:07;8.25;;;3.53;;
47289;SDS011;33197;52.524;13.444;2023-05-10T05:51:34;10.05;;;3.60;;
47289;SDS011;33197;52.524;13.444;2023-05-10T05:54:02;4.63;;;3.30;;
47289;SDS011;33197;52.524;13.444;2023-05-10T05:56:30;6.85;;;3.08;;
47289;SDS011;33197;52.524;13.444;2023-05-10T05:58:58;5.72;;;3.20;;
47289;SDS011;33197;52.524;13.444;2023-05-10T06:01:25;9.48;;;3.40;;
47289;SDS011;33197;52.524;13.444;2023-05-10T06:03:52;6.50;;;3.70;;
47289;SDS011;33197;52.524;13.444;2023-05-10T06:06:20;7.78;;;3.05;;
47289;SDS011;33197;52.524;13.444;2023-05-10T06:08:47;5.28;;;3.40;;
47289;SDS011;33197;52.524;13.444;2023-05-10T06:11:14;6.60;;;2.72;;
47289;SDS011;33197;52.524;13.444;2023-05-10T06:13:41;5.70;;;3.53;;
47289;SDS011;33197;52.524;13.444;2023-05-10T06:16:09;5.05;;;3.08;;
47289;SDS011;33197;52.524;13.444;2023-05-10T06:18:36;11.55;;;2.95;;
47289;SDS011;33197;52.524;13.444;2023-05-10T06:21:03;7.88;;;2.53;;
47289;SDS011;33197;52.524;13.444;2023-05-10T06:23:30;3.55;;;2.45;;
47289;SDS011;33197;52.524;13.444;2023-05-10T06:25:58;6.15;;;2.70;;
47289;SDS011;33197;52.524;13.444;2023-05-10T06:28:25;8.65;;;3.10;;
47289;SDS011;33197;52.524;13.444;2023-05-10T06:30:52;9.73;;;2.90;;
47289;SDS011;33197;52.524;13.444;2023-05-10T06:33:19;8.27;;;3.00;;
47289;SDS011;33197;52.524;13.444;2023-05-10T06:35:46;6.80;;;3.17;;
47289;SDS011;33197;52.524;13.444;2023-05-10T06:38:13;10.43;;;2.80;;
47289;SDS011;33197;52.524;13.444;2023-05-10T06:40:41;7.15;;;2.58;;
47289;SDS011;33197;52.524;13.444;2023-05-10T06:43:09;5.47;;;2.78;;
47289;SDS011;33197;52.524;13.444;2023-05-10T06:45:36;9.40;;;2.67;;
47289;SDS011;33197;52.524;13.444;2023-05-10T06:48:03;7.90;;;3.28;;
47289;SDS011;33197;52.524;13.444;2023-05-10T06:50:30;7.50;;;3.45;;
47289;SDS011;33197;52.524;13.444;2023-05-10T06:52:58;8.70;;;3.03;;
47289;SDS011;33197;52.524;13.444;2023-05-10T06:55:25;11.15;;;2.70;;
47289;SDS011;33197;52.524;13.444;2023-05-10T06:57:53;5.25;;;2.40;;
47289;SDS011;33197;52.524;13.444;2023-05-10T07:00:20;12.23;;;2.88;;
47289;SDS011;33197;52.524;13.444;2023-05-10T07:02:47;6.03;;;2.83;;
47289;SDS011;33197;52.524;13.444;2023-05-10T07:05:15;5.75;;;3.10;;
47289;SDS011;33197;52.524;13.444;2023-05-10T07:07:42;8.52;;;2.97;;
47289;SDS011;33197;52.524;13.444;2023-05-10T07:10:10;7.43;;;2.83;;
47289;SDS011;33197;52.524;13.444;2023-05-10T07:12:37;10.55;;;2.72;;
47289;SDS011;33197;52.524;13.444;2023-05-10T07:15:05;7.40;;;2.85;;
47289;SDS011;33197;52.524;13.444;2023-05-10T07:17:33;3.90;;;2.53;;
47289;SDS011;33197;52.524;13.444;2023-05-10T07:20:00;4.68;;;2.78;;
47289;SDS011;33197;52.524;13.444;2023-05-10T07:22:28;6.03;;;2.90;;
47289;SDS011;33197;52.524;13.444;2023-05-10T07:24:55;5.90;;;2.90;;
47289;SDS011;33197;52.524;13.444;2023-05-10T07:27:22;8.93;;;2.90;;
47289;SDS011;33197;52.524;13.444;2023-05-10T07:29:49;10.18;;;6.47;;
47289;SDS011;33197;52.524;13.444;2023-05-10T07:32:17;25.55;;;15.38;;
47289;SDS011;33197;52.524;13.444;2023-05-10T07:34:44;6.43;;;3.22;;
47289;SDS011;33197;52.524;13.444;2023-05-10T07:37:11;7.38;;;2.40;;
47289;SDS011;33197;52.524;13.444;2023-05-10T07:39:38;8.02;;;2.53;;
47289;SDS011;33197;52.524;13.444;2023-05-10T07:42:05;6.78;;;2.78;;
47289;SDS011;33197;52.524;13.444;2023-05-10T07:44:32;7.35;;;3.45;;
47289;SDS011;33197;52.524;13.444;2023-05-10T07:47:00;8.77;;;3.50;;
47289;SDS011;33197;52.524;13.444;2023-05-10T07:49:27;10.63;;;2.90;;
47289;SDS011;33197;52.524;13.444;2023-05-10T07:51:54;7.70;;;2.83;;
47289;SDS011;33197;52.524;13.444;2023-05-10T07:54:21;10.65;;;3.03;;
47289;SDS011;33197;52.524;13.444;2023-05-10T07:56:48;13.55;;;2.85;;
47289;SDS011;33197;52.524;13.444;2023-05-10T07:59:16;4.22;;;2.45;;
47289;SDS011;33197;52.524;13.444;2023-05-10T08:01:44;6.13;;;3.03;;
47289;SDS011;33197;52.524;13.444;2023-05-10T08:04:11;6.68;;;2.88;;
47289;SDS011;33197;52.524;13.444;2023-05-10T08:06:39;7.05;;;2.10;;
47289;SDS011;33197;52.524;13.444;2023-05-10T08:09:06;9.57;;;2.78;;
47289;SDS011;33197;52.524;13.444;2023-05-10T08:11:34;7.15;;;2.28;;
47289;SDS011;33197;52.524;13.444;2023-05-10T08:14:01;3.60;;;2.42;;
47289;SDS011;33197;52.524;13.444;2023-05-10T08:16:29;4.63;;;2.72;;
47289;SDS011;33197;52.524;13.444;2023-05-10T08:18:56;8.18;;;2.53;;
47289;SDS011;33197;52.524;13.444;2023-05-10T08:21:23;7.32;;;2.65;;
47289;SDS011;33197;52.524;13.444;2023-05-10T08:23:50;3.67;;;2.15;;
47289;SDS011;33197;52.524;13.444;2023-05-10T08:26:17;4.57;;;2.38;;
47289;SDS011;33197;52.524;13.444;2023-05-10T08:28:44;5.53;;;2.40;;
47289;SDS011;33197;52.524;13.444;2023-05-10T08:31:11;6.97;;;2.38;;
47289;SDS011;33197;52.524;13.444;2023-05-10T08:33:39;6.05;;;2.67;;
47289;SDS011;33197;52.524;13.444;2023-05-10T08:36:08;5.05;;;2.13;;
47289;SDS011;33197;52.524;13.444;2023-05-10T08:38:36;5.10;;;2.40;;
47289;SDS011;33197;52.524;13.444;2023-05-10T08:41:04;6.07;;;3.13;;
47289;SDS011;33197;52.524;13.444;2023-05-10T08:43:32;5.70;;;2.55;;
47289;SDS011;33197;52.524;13.444;2023-05-10T08:46:00;3.72;;;2.30;;
47289;SDS011;33197;52.524;13.444;2023-05-10T08:48:28;3.30;;;2.33;;
47289;SDS011;33197;52.524;13.444;2023-05-10T08:50:56;13.35;;;2.95;;
47289;SDS011;33197;52.524;13.444;2023-05-10T08:53:25;8.10;;;2.47;;
47289;SDS011;33197;52.524;13.444;2023-05-10T08:55:54;5.72;;;2.25;;
47289;SDS011;33197;52.524;13.444;2023-05-10T08:58:22;9.35;;;2.13;;
47289;SDS011;33197;52.524;13.444;2023-05-10T09:00:49;5.60;;;2.17;;
47289;SDS011;33197;52.524;13.444;2023-05-10T09:03:19;5.93;;;2.50;;
47289;SDS011;33197;52.524;13.444;2023-05-10T09:05:48;3.63;;;1.95;;
47289;SDS011;33197;52.524;13.444;2023-05-10T09:08:15;5.22;;;2.40;;
47289;SDS011;33197;52.524;13.444;2023-05-10T09:10:46;9.45;;;2.47;;
47289;SDS011;33197;52.524;13.444;2023-05-10T09:13:15;4.95;;;2.25;;
47289;SDS011;33197;52.524;13.444;2023-05-10T09:15:45;11.30;;;8.27;;
47289;SDS011;33197;52.524;13.444;2023-05-10T09:18:12;10.98;;;9.25;;
47289;SDS011;33197;52.524;13.444;2023-05-10T09:20:40;7.80;;;3.38;;
47289;SDS011;33197;52.524;13.444;2023-05-10T09:23:07;6.55;;;2.60;;
47289;SDS011;33197;52.524;13.444;2023-05-10T09:25:35;8.27;;;2.47;;
47289;SDS011;33197;52.524;13.444;2023-05-10T09:28:02;4.50;;;2.63;;
47289;SDS011;33197;52.524;13.444;2023-05-10T09:30:33;13.75;;;2.55;;
47289;SDS011;33197;52.524;13.444;2023-05-10T09:33:00;11.32;;;2.58;;
47289;SDS011;33197;52.524;13.444;2023-05-10T09:35:29;7.57;;;1.88;;
47289;SDS011;33197;52.524;13.444;2023-05-10T09:37:59;5.63;;;2.78;;
47289;SDS011;33197;52.524;13.444;2023-05-10T09:40:27;7.13;;;2.17;;
47289;SDS011;33197;52.524;13.444;2023-05-10T09:42:56;2.88;;;2.15;;
47289;SDS011;33197;52.524;13.444;2023-05-10T09:45:25;9.45;;;2.42;;
47289;SDS011;33197;52.524;13.444;2023-05-10T09:47:54;6.05;;;2.28;;
47289;SDS011;33197;52.524;13.444;2023-05-10T09:50:22;5.22;;;2.25;;
47289;SDS011;33197;52.524;13.444;2023-05-10T09:52:50;3.90;;;2.30;;
47289;SDS011;33197;52.524;13.444;2023-05-10T09:55:22;5.65;;;2.47;;
47289;SDS011;33197;52.524;13.444;2023-05-10T09:57:58;6.13;;;2.22;;
47289;SDS011;33197;52.524;13.444;2023-05-10T10:00:26;6.35;;;2.05;;
47289;SDS011;33197;52.524;13.444;2023-05-10T10:02:54;3.72;;;2.33;;
47289;SDS011;33197;52.524;13.444;2023-05-10T10:05:34;4.00;;;2.40;;
47289;SDS011;33197;52.524;13.444;2023-05-10T10:08:03;4.57;;;2.13;;
47289;SDS011;33197;52.524;13.444;2023-05-10T10:10:31;6.55;;;2.00;;
47289;SDS011;33197;52.524;13.444;2023-05-10T10:12:59;5.05;;;2.10;;
47289;SDS011;33197;52.524;13.444;2023-05-10T10:15:26;9.55;;;2.67;;
47289;SDS011;33197;52.524;13.444;2023-05-10T10:17:54;4.53;;;2.20;;
47289;SDS011;33197;52.524;13.444;2023-05-10T10:20:21;4.72;;;2.13;;
47289;SDS011;33197;52.524;13.444;2023-05-10T10:22:49;2.50;;;2.00;;
47289;SDS011;33197;52.524;13.444;2023-05-10T10:25:16;5.90;;;2.33;;
47289;SDS011;33197;52.524;13.444;2023-05-10T10:36:04;4.25;;;2.17;;
47289;SDS011;33197;52.524;13.444;2023-05-10T10:52:25;4.07;;;2.00;;
47289;SDS011;33197;52.524;13.444;2023-05-10T10:55:01;4.60;;;2.55;;
47289;SDS011;33197;52.524;13.444;2023-05-10T10:57:34;10.55;;;1.80;;
47289;SDS011;33197;52.524;13.444;2023-05-10T11:00:19;3.72;;;1.73;;
47289;SDS011;33197;52.524;13.444;2023-05-10T11:02:48;7.82;;;2.10;;
47289;SDS011;33197;52.524;13.444;2023-05-10T11:05:39;3.35;;;1.92;;
47289;SDS011;33197;52.524;13.444;2023-05-10T11:08:46;7.47;;;2.40;;
47289;SDS011;33197;52.524;13.444;2023-05-10T11:11:14;8.18;;;1.95;;
47289;SDS011;33197;52.524;13.444;2023-05-10T11:13:44;6.90;;;2.60;;
47289;SDS011;33197;52.524;13.444;2023-05-10T11:21:29;4.13;;;2.15;;
47289;SDS011;33197;52.524;13.444;2023-05-10T11:24:00;4.70;;;2.00;;
47289;SDS011;33197;52.524;13.444;2023-05-10T11:26:35;5.40;;;2.30;;
47289;SDS011;33197;52.524;13.444;2023-05-10T11:29:03;5.47;;;2.15;;
47289;SDS011;33197;52.524;13.444;2023-05-10T11:31:31;4.68;;;2.15;;
47289;SDS011;33197;52.524;13.444;2023-05-10T11:33:59;6.35;;;2.10;;
47289;SDS011;33197;52.524;13.444;2023-05-10T11:36:34;3.70;;;2.08;;
47289;SDS011;33197;52.524;13.444;2023-05-10T11:39:02;4.72;;;1.95;;
47289;SDS011;33197;52.524;13.444;2023-05-10T11:41:31;5.70;;;2.10;;
47289;SDS011;33197;52.524;13.444;2023-05-10T11:43:58;3.15;;;2.03;;
47289;SDS011;33197;52.524;13.444;2023-05-10T11:46:27;3.65;;;2.03;;
47289;SDS011;33197;52.524;13.444;2023-05-10T11:49:01;7.82;;;2.00;;
47289;SDS011;33197;52.524;13.444;2023-05-10T11:51:32;4.70;;;2.10;;
47289;SDS011;33197;52.524;13.444;2023-05-10T11:54:05;4.28;;;2.13;;
47289;SDS011;33197;52.524;13.444;2023-05-10T11:56:36;7.68;;;2.10;;
47289;SDS011;33197;52.524;13.444;2023-05-10T11:59:07;6.28;;;2.00;;
47289;SDS011;33197;52.524;13.444;2023-05-10T12:01:35;4.57;;;2.13;;
47289;SDS011;33197;52.524;13.444;2023-05-10T12:04:02;7.97;;;2.03;;
47289;SDS011;33197;52.524;13.444;2023-05-10T12:06:30;5.55;;;2.42;;
47289;SDS011;33197;52.524;13.444;2023-05-10T12:08:58;6.22;;;2.00;;
47289;SDS011;33197;52.524;13.444;2023-05-10T12:11:26;9.90;;;2.47;;
47289;SDS011;33197;52.524;13.444;2023-05-10T12:13:55;7.15;;;1.80;;
47289;SDS011;33197;52.524;13.444;2023-05-10T12:16:24;8.38;;;2.05;;
47289;SDS011;33197;52.524;13.444;2023-05-10T12:18:59;3.28;;;2.30;;
47289;SDS011;33197;52.524;13.444;2023-05-10T12:21:28;7.47;;;2.15;;
47289;SDS011;33197;52.524;13.444;2023-05-10T12:24:03;4.63;;;2.17;;
47289;SDS011;33197;52.524;13.444;2023-05-10T12:26:32;7.43;;;2.55;;
47289;SDS011;33197;52.524;13.444;2023-05-10T12:29:20;9.50;;;2.17;;
47289;SDS011;33197;52.524;13.444;2023-05-10T12:34:33;10.40;;;2.05;;
47289;SDS011;33197;52.524;13.444;2023-05-10T12:39:42;5.07;;;2.70;;
47289;SDS011;33197;52.524;13.444;2023-05-10T12:42:10;13.07;;;2.20;;
47289;SDS011;33197;52.524;13.444;2023-05-10T12:44:38;4.53;;;2.30;;
47289;SDS011;33197;52.524;13.444;2023-05-10T12:47:05;6.85;;;2.13;;
47289;SDS011;33197;52.524;13.444;2023-05-10T12:49:33;3.40;;;1.75;;
47289;SDS011;33197;52.524;13.444;2023-05-10T12:52:00;8.57;;;2.10;;
47289;SDS011;33197;52.524;13.444;2023-05-10T12:54:27;4.70;;;1.83;;
47289;SDS011;33197;52.524;13.444;2023-05-10T12:56:55;6.40;;;1.98;;
47289;SDS011;33197;52.524;13.444;2023-05-10T12:59:22;7.53;;;2.10;;
47289;SDS011;33197;52.524;13.444;2023-05-10T13:01:49;8.07;;;2.15;;
47289;SDS011;33197;52.524;13.444;2023-05-10T13:04:17;4.15;;;1.88;;
47289;SDS011;33197;52.524;13.444;2023-05-10T13:06:44;4.72;;;1.95;;
47289;SDS011;33197;52.524;13.444;2023-05-10T13:09:11;3.83;;;1.90;;
47289;SDS011;33197;52.524;13.444;2023-05-10T13:15:56;2.65;;;1.70;;
47289;SDS011;33197;52.524;13.444;2023-05-10T13:18:23;3.90;;;1.67;;
47289;SDS011;33197;52.524;13.444;2023-05-10T13:20:51;2.33;;;1.58;;
47289;SDS011;33197;52.524;13.444;2023-05-10T13:23:18;4.30;;;1.92;;
47289;SDS011;33197;52.524;13.444;2023-05-10T13:25:45;4.93;;;2.08;;
47289;SDS011;33197;52.524;13.444;2023-05-10T13:28:12;4.38;;;2.10;;
47289;SDS011;33197;52.524;13.444;2023-05-10T13:30:39;3.95;;;2.05;;
47289;SDS011;33197;52.524;13.444;2023-05-10T13:33:07;3.13;;;1.90;;
47289;SDS011;33197;52.524;13.444;2023-05-10T13:35:34;5.25;;;1.90;;
47289;SDS011;33197;52.524;13.444;2023-05-10T13:42:25;7.07;;;2.15;;
47289;SDS011;33197;52.524;13.444;2023-05-10T13:44:52;7.63;;;2.15;;
47289;SDS011;33197;52.524;13.444;2023-05-10T13:47:19;7.53;;;2.60;;
47289;SDS011;33197;52.524;13.444;2023-05-10T13:49:48;7.95;;;1.90;;
47289;SDS011;33197;52.524;13.444;2023-05-10T13:52:15;4.10;;;2.17;;
47289;SDS011;33197;52.524;13.444;2023-05-10T13:54:42;3.97;;;2.25;;
47289;SDS011;33197;52.524;13.444;2023-05-10T13:57:09;7.18;;;1.88;;
47289;SDS011;33197;52.524;13.444;2023-05-10T13:59:39;7.78;;;2.42;;
47289;SDS011;33197;52.524;13.444;2023-05-10T14:02:06;4.63;;;2.17;;
47289;SDS011;33197;52.524;13.444;2023-05-10T14:04:33;2.70;;;2.10;;
47289;SDS011;33197;52.524;13.444;2023-05-10T14:07:02;4.88;;;2.20;;
47289;SDS011;33197;52.524;13.444;2023-05-10T14:09:29;5.82;;;1.80;;
47289;SDS011;33197;52.524;13.444;2023-05-10T14:11:57;3.63;;;2.03;;
47289;SDS011;33197;52.524;13.444;2023-05-10T14:14:24;2.67;;;2.05;;
47289;SDS011;33197;52.524;13.444;2023-05-10T14:16:51;3.38;;;2.25;;
47289;SDS011;33197;52.524;13.444;2023-05-10T14:19:19;6.35;;;2.72;;
47289;SDS011;33197;52.524;13.444;2023-05-10T14:21:46;5.88;;;2.75;;
47289;SDS011;33197;52.524;13.444;2023-05-10T14:24:13;10.30;;;3.05;;
47289;SDS011;33197;52.524;13.444;2023-05-10T14:26:40;5.22;;;3.35;;
47289;SDS011;33197;52.524;13.444;2023-05-10T14:29:07;4.95;;;4.10;;
47289;SDS011;33197;52.524;13.444;2023-05-10T14:31:38;5.65;;;5.00;;
47289;SDS011;33197;52.524;13.444;2023-05-10T14:34:05;9.10;;;4.88;;
47289;SDS011;33197;52.524;13.444;2023-05-10T14:36:32;5.93;;;5.32;;
47289;SDS011;33197;52.524;13.444;2023-05-10T14:39:00;6.80;;;6.20;;
47289;SDS011;33197;52.524;13.444;2023-05-10T14:41:27;8.30;;;7.60;;
47289;SDS011;33197;52.524;13.444;2023-05-10T14:43:54;9.45;;;8.80;;
47289;SDS011;33197;52.524;13.444;2023-05-10T14:46:22;11.32;;;10.40;;
47289;SDS011;33197;52.524;13.444;2023-05-10T14:48:49;14.38;;;13.25;;
47289;SDS011;33197;52.524;13.444;2023-05-10T14:51:16;18.05;;;16.75;;
47289;SDS011;33197;52.524;13.444;2023-05-10T14:53:45;19.52;;;18.45;;
47289;SDS011;33197;52.524;13.444;2023-05-10T14:56:12;22.67;;;21.52;;
47289;SDS011;33197;52.524;13.444;2023-05-10T14:58:42;24.33;;;22.85;;
47289;SDS011;33197;52.524;13.444;2023-05-10T15:01:10;27.92;;;26.42;;
47289;SDS011;33197;52.524;13.444;2023-05-10T15:03:39;28.05;;;26.55;;
47289;SDS011;33197;52.524;13.444;2023-05-10T15:06:08;28.13;;;26.48;;
47289;SDS011;33197;52.524;13.444;2023-05-10T15:08:35;29.30;;;27.77;;
47289;SDS011;33197;52.524;13.444;2023-05-10T15:11:02;29.92;;;28.42;;
47289;SDS011;33197;52.524;13.444;2023-05-10T15:13:30;32.13;;;30.23;;
47289;SDS011;33197;52.524;13.444;2023-05-10T15:15:57;26.85;;;25.42;;
47289;SDS011;33197;52.524;13.444;2023-05-10T15:18:24;24.73;;;23.13;;
47289;SDS011;33197;52.524;13.444;2023-05-10T15:20:51;21.65;;;20.45;;
47289;SDS011;33197;52.524;13.444;2023-05-10T15:23:18;20.17;;;19.00;;
47289;SDS011;33197;52.524;13.444;2023-05-10T15:25:45;19.83;;;18.50;;
47289;SDS011;33197;52.524;13.444;2023-05-10T15:28:13;20.85;;;19.58;;
47289;SDS011;33197;52.524;13.444;2023-05-10T15:30:40;12.45;;;11.40;;
47289;SDS011;33197;52.524;13.444;2023-05-10T15:33:07;10.00;;;8.82;;